createdAt,value
2022-10-31T00:00:53.164Z,9.87
2022-10-31T00:04:53.319Z,11.77
2022-10-31T00:09:01.796Z,10.33
2022-10-31T00:13:02.028Z,9.77
2022-10-31T00:17:02.337Z,10.33
2022-10-31T00:21:06.953Z,10.33
2022-10-31T00:25:10.547Z,10.47
2022-10-31T00:29:10.654Z,11.43
2022-10-31T00:33:10.936Z,11.20
2022-10-31T00:37:11.097Z,10.30
2022-10-31T00:41:14.505Z,10.13
2022-10-31T00:45:15.447Z,10.00
2022-10-31T00:49:15.703Z,11.90
2022-10-31T00:53:15.993Z,10.70
2022-10-31T00:57:19.026Z,9.53
2022-10-31T01:01:20.533Z,8.80
2022-10-31T01:05:21.513Z,9.40
2022-10-31T01:09:22.076Z,13.40
2022-10-31T01:13:24.791Z,11.80
2022-10-31T01:17:26.304Z,12.03
2022-10-31T01:21:29.900Z,10.10
2022-10-31T01:25:32.604Z,9.33
2022-10-31T01:29:35.396Z,9.07
2022-10-31T01:33:35.654Z,8.70
2022-10-31T01:37:36.017Z,8.13
2022-10-31T01:41:39.407Z,8.93
2022-10-31T01:45:45.645Z,7.30
2022-10-31T01:49:52.912Z,6.57
2022-10-31T01:53:59.128Z,7.10
2022-10-31T01:58:05.903Z,5.83
2022-10-31T02:02:10.495Z,5.80
2022-10-31T02:06:17.645Z,5.50
2022-10-31T02:10:18.735Z,6.57
2022-10-31T02:14:19.572Z,6.63
2022-10-31T02:18:23.544Z,6.00
2022-10-31T02:22:31.729Z,4.63
2022-10-31T02:27:19.135Z,5.23
2022-10-31T02:31:37.434Z,5.17
2022-10-31T02:35:54.187Z,5.47
2022-10-31T02:40:08.696Z,6.20
2022-10-31T02:44:42.237Z,6.53
2022-10-31T02:48:49.165Z,6.57
2022-10-31T02:52:54.447Z,6.33
2022-10-31T02:57:00.141Z,6.00
2022-10-31T03:01:51.369Z,5.40
2022-10-31T03:06:06.633Z,5.40
2022-10-31T03:10:18.989Z,5.60
2022-10-31T03:14:28.515Z,5.93
2022-10-31T03:18:38.071Z,6.30
2022-10-31T03:22:46.568Z,7.53
2022-10-31T03:26:55.350Z,8.67
2022-10-31T03:31:00.407Z,8.17
2022-10-31T03:35:06.549Z,8.77
2022-10-31T03:39:16.973Z,10.37
2022-10-31T03:43:25.703Z,8.70
2022-10-31T03:47:26.586Z,8.50
2022-10-31T03:51:36.357Z,8.20
2022-10-31T03:55:49.894Z,8.73
2022-10-31T03:59:58.894Z,8.87
2022-10-31T04:04:00.699Z,8.00
2022-10-31T04:08:07.132Z,7.70
2022-10-31T04:12:16.082Z,8.17
2022-10-31T04:16:20.811Z,8.40
2022-10-31T04:20:22.214Z,9.50
2022-10-31T04:24:22.667Z,7.73
2022-10-31T04:28:25.933Z,7.30
2022-10-31T04:32:26.211Z,9.70
2022-10-31T04:36:28.297Z,7.80
2022-10-31T04:40:28.574Z,8.70
2022-10-31T04:44:31.242Z,8.57
2022-10-31T04:48:34.645Z,7.50
2022-10-31T04:52:36.805Z,7.77
2022-10-31T04:56:37.238Z,7.60
2022-10-31T05:00:47.039Z,7.50
2022-10-31T05:04:48.271Z,8.17
2022-10-31T05:08:49.492Z,7.90
2022-10-31T05:12:51.580Z,7.60
2022-10-31T05:17:12.810Z,9.57
2022-10-31T05:21:38.887Z,8.87
2022-10-31T05:25:39.197Z,8.80
2022-10-31T05:29:39.362Z,9.13
2022-10-31T05:33:42.034Z,10.33
2022-10-31T05:38:01.918Z,9.33
2022-10-31T05:42:02.078Z,8.57
2022-10-31T05:46:03.889Z,8.00
2022-10-31T05:50:25.751Z,8.60
2022-10-31T05:54:41.700Z,8.87
2022-10-31T05:58:42.816Z,8.20
2022-10-31T06:02:43.023Z,8.10
2022-10-31T06:07:01.083Z,7.80
2022-10-31T06:11:01.210Z,8.43
2022-10-31T06:15:25.014Z,7.20
2022-10-31T06:19:26.855Z,7.67
2022-10-31T06:23:29.723Z,6.93
2022-10-31T06:27:49.779Z,8.43
2022-10-31T06:31:50.080Z,8.67
2022-10-31T06:35:51.444Z,8.83
2022-10-31T06:39:54.773Z,10.03
2022-10-31T06:43:55.120Z,9.43
2022-10-31T06:48:21.637Z,10.93
2022-10-31T06:52:42.280Z,10.47
2022-10-31T06:56:45.353Z,9.20
2022-10-31T07:00:45.690Z,9.07
2022-10-31T07:04:46.668Z,9.20
2022-10-31T07:08:48.861Z,9.43
2022-10-31T07:12:51.850Z,8.27
2022-10-31T07:16:55.601Z,9.23
2022-10-31T07:21:00.591Z,9.17
2022-10-31T07:25:00.727Z,9.70
2022-10-31T07:29:12.406Z,9.27
2022-10-31T07:33:13.035Z,8.23
2022-10-31T07:37:33.080Z,10.10
2022-10-31T07:41:33.423Z,8.70
2022-10-31T07:45:36.349Z,10.53
2022-10-31T07:49:54.736Z,10.63
2022-10-31T07:54:15.063Z,8.63
2022-10-31T07:58:18.715Z,7.60
2022-10-31T08:02:22.030Z,8.03
2022-10-31T08:06:22.126Z,9.30
2022-10-31T08:10:44.626Z,8.80
2022-10-31T08:14:45.265Z,8.50
2022-10-31T08:18:48.790Z,8.97
2022-10-31T08:22:58.330Z,9.50
2022-10-31T08:26:59.610Z,10.53
2022-10-31T08:31:02.241Z,10.03
2022-10-31T08:35:17.762Z,11.07
2022-10-31T08:39:40.615Z,9.70
2022-10-31T08:43:40.877Z,8.57
2022-10-31T08:47:41.046Z,9.85
2022-10-31T08:51:46.875Z,9.50
2022-10-31T08:55:49.497Z,8.98
2022-10-31T08:59:57.573Z,9.45
2022-10-31T09:04:18.163Z,9.23
2022-10-31T09:08:21.660Z,7.88
2022-10-31T09:12:21.845Z,9.05
2022-10-31T09:16:40.642Z,9.00
2022-10-31T09:20:49.919Z,8.73
2022-10-31T09:24:53.465Z,7.25
2022-10-31T09:28:53.524Z,8.70
2022-10-31T09:32:59.485Z,7.80
2022-10-31T09:36:59.875Z,7.53
2022-10-31T09:41:22.977Z,7.63
2022-10-31T09:45:35.006Z,7.10
2022-10-31T09:50:06.259Z,6.60
2022-10-31T09:54:14.717Z,6.65
2022-10-31T09:58:22.731Z,6.80
2022-10-31T10:02:31.738Z,6.78
2022-10-31T10:06:39.560Z,7.63
2022-10-31T10:11:15.425Z,6.38
2022-10-31T10:15:59.398Z,6.50
2022-10-31T10:20:29.003Z,5.80
2022-10-31T10:24:55.170Z,6.13
2022-10-31T10:29:05.154Z,6.05
2022-10-31T10:33:14.939Z,7.20
2022-10-31T10:37:28.748Z,6.20
2022-10-31T10:41:35.218Z,7.55
2022-10-31T10:45:47.960Z,5.30
2022-10-31T10:49:55.703Z,5.75
2022-10-31T10:54:30.942Z,8.63
2022-10-31T10:58:31.141Z,8.75
2022-10-31T11:02:36.727Z,6.43
2022-10-31T11:06:39.479Z,7.05
2022-10-31T11:10:40.787Z,6.30
2022-10-31T11:14:50.890Z,5.40
2022-10-31T11:18:51.836Z,8.32
2022-10-31T11:23:08.493Z,5.95
2022-10-31T11:27:20.926Z,5.82
2022-10-31T11:31:21.277Z,7.43
2022-10-31T11:35:25.991Z,6.03
2022-10-31T11:39:29.084Z,6.50
2022-10-31T11:43:30.086Z,6.93
2022-10-31T11:47:33.700Z,6.55
2022-10-31T11:51:38.501Z,5.88
2022-10-31T11:55:43.451Z,6.57
2022-10-31T11:59:43.684Z,6.60
2022-10-31T12:03:58.825Z,5.72
2022-10-31T12:08:03.440Z,7.15
2022-10-31T12:12:36.839Z,6.15
2022-10-31T12:16:46.428Z,6.25
2022-10-31T12:21:04.596Z,6.00
2022-10-31T12:25:29.378Z,6.20
2022-10-31T12:29:53.564Z,5.88
2022-10-31T12:34:13.954Z,5.70
2022-10-31T12:38:53.790Z,6.03
2022-10-31T12:43:10.828Z,6.10
2022-10-31T12:47:40.177Z,5.60
2022-10-31T12:51:54.818Z,6.15
2022-10-31T12:56:18.757Z,5.57
2022-10-31T13:00:24.239Z,5.07
2022-10-31T13:04:46.109Z,5.40
2022-10-31T13:08:54.957Z,6.28
2022-10-31T13:13:03.015Z,6.22
2022-10-31T13:17:06.194Z,6.30
2022-10-31T13:21:16.573Z,5.28
2022-10-31T13:25:23.163Z,4.63
2022-10-31T13:29:32.853Z,5.25
2022-10-31T13:33:39.430Z,6.57
2022-10-31T13:37:54.528Z,7.60
2022-10-31T13:42:03.581Z,5.63
2022-10-31T13:46:03.871Z,4.40
2022-10-31T13:50:23.905Z,4.18
2022-10-31T13:54:36.882Z,3.80
2022-10-31T13:58:38.193Z,4.40
2022-10-31T14:02:40.533Z,4.28
2022-10-31T14:06:53.686Z,4.07
2022-10-31T14:10:59.646Z,3.95
2022-10-31T14:15:08.395Z,3.67
2022-10-31T14:19:17.662Z,4.35
2022-10-31T14:23:41.725Z,3.90
2022-10-31T14:27:53.008Z,3.90
2022-10-31T14:32:00.203Z,3.80
2022-10-31T14:36:07.783Z,3.72
2022-10-31T14:40:26.533Z,3.78
2022-10-31T14:45:12.253Z,4.18
2022-10-31T14:49:35.400Z,3.80
2022-10-31T14:53:39.366Z,3.75
2022-10-31T14:57:46.028Z,3.13
2022-10-31T15:02:01.631Z,3.63
2022-10-31T15:06:07.044Z,3.63
2022-10-31T15:10:22.408Z,3.20
2022-10-31T15:14:29.607Z,3.28
2022-10-31T15:18:32.872Z,3.58
2022-10-31T15:22:35.380Z,3.70
2022-10-31T15:26:43.233Z,3.35
2022-10-31T15:30:43.472Z,3.65
2022-10-31T15:34:47.763Z,4.03
2022-10-31T15:38:48.479Z,9.13
2022-10-31T15:42:55.410Z,6.82
2022-10-31T15:47:01.931Z,6.03
2022-10-31T15:51:06.034Z,4.68
2022-10-31T15:55:21.812Z,5.75
2022-10-31T15:59:28.135Z,5.18
2022-10-31T16:03:31.246Z,7.13
2022-10-31T16:07:34.617Z,6.25
2022-10-31T16:11:42.183Z,5.85
2022-10-31T16:15:59.554Z,5.25
2022-10-31T16:20:26.930Z,5.35
2022-10-31T16:24:35.507Z,8.20
2022-10-31T16:28:43.195Z,19.02
2022-10-31T16:32:59.385Z,13.60
2022-10-31T16:37:00.036Z,14.27
2022-10-31T16:41:05.112Z,14.00
2022-10-31T16:45:05.386Z,14.27
2022-10-31T16:49:05.600Z,12.73
2022-10-31T16:53:13.970Z,12.73
2022-10-31T16:57:21.275Z,16.17
2022-10-31T17:01:21.615Z,20.15
2022-10-31T17:05:30.314Z,15.95
2022-10-31T17:09:30.538Z,16.65
2022-10-31T17:13:37.275Z,18.20
2022-10-31T17:17:37.624Z,17.67
2022-10-31T17:21:38.906Z,46.88
2022-10-31T17:25:39.527Z,24.55
2022-10-31T17:29:42.231Z,16.45
2022-10-31T17:33:43.440Z,20.48
2022-10-31T17:37:45.233Z,32.08
2022-10-31T17:41:45.371Z,22.55
2022-10-31T17:45:48.037Z,18.88
2022-10-31T17:49:48.253Z,17.10
2022-10-31T17:53:48.497Z,16.70
2022-10-31T17:57:49.202Z,14.10
2022-10-31T18:01:52.070Z,15.23
2022-10-31T18:05:57.551Z,17.93
2022-10-31T18:09:57.756Z,15.63
2022-10-31T18:13:59.917Z,17.60
2022-10-31T18:18:02.912Z,17.80
2022-10-31T18:22:03.820Z,19.23
2022-10-31T18:26:03.985Z,18.23
2022-10-31T18:30:04.093Z,20.77
2022-10-31T18:34:06.824Z,21.97
2022-10-31T18:38:08.025Z,21.53
2022-10-31T18:42:08.542Z,30.77
2022-10-31T18:46:11.796Z,28.20
2022-10-31T18:50:15.138Z,29.00
2022-10-31T18:54:15.221Z,25.37
2022-10-31T18:58:15.364Z,25.03
2022-10-31T19:02:18.353Z,28.43
2022-10-31T19:06:21.177Z,21.63
2022-10-31T19:10:21.437Z,25.20
2022-10-31T19:14:21.817Z,32.77
2022-10-31T19:18:21.929Z,42.60
2022-10-31T19:22:24.606Z,36.97
2022-10-31T19:26:24.908Z,38.80
2022-10-31T19:30:25.168Z,40.17
2022-10-31T19:34:25.284Z,37.10
2022-10-31T19:38:28.012Z,41.37
2022-10-31T19:42:29.039Z,30.90
2022-10-31T19:50:49.664Z,33.27
2022-10-31T19:54:52.307Z,25.90
2022-10-31T19:58:52.632Z,30.17
2022-10-31T20:02:52.790Z,34.37
2022-10-31T20:06:52.885Z,31.13
2022-10-31T20:11:03.903Z,36.33
2022-10-31T20:15:04.104Z,33.27
2022-10-31T20:19:04.316Z,32.73
2022-10-31T20:23:04.726Z,32.57
2022-10-31T20:27:07.544Z,35.63
2022-10-31T20:31:12.642Z,32.73
2022-10-31T20:35:13.560Z,32.63
2022-10-31T20:39:13.747Z,33.57
2022-10-31T20:43:16.980Z,29.67
2022-10-31T20:47:19.493Z,28.10
2022-10-31T20:51:25.096Z,28.77
2022-10-31T20:55:25.277Z,27.93
2022-10-31T20:59:27.950Z,28.23
2022-10-31T21:03:29.630Z,26.10
2022-10-31T21:07:32.762Z,22.53
2022-10-31T21:11:33.523Z,20.47
2022-10-31T21:15:36.336Z,19.67
2022-10-31T21:19:37.624Z,23.53
2022-10-31T21:23:37.783Z,35.53
2022-10-31T21:27:37.874Z,30.53
2022-10-31T21:31:42.674Z,32.90
2022-10-31T21:35:42.846Z,29.97
2022-10-31T21:39:46.888Z,27.07
2022-10-31T21:43:54.943Z,25.27
2022-10-31T21:47:57.633Z,17.07
2022-10-31T21:51:57.784Z,17.93
2022-10-31T21:55:57.961Z,18.97
2022-10-31T21:59:58.052Z,14.70
2022-10-31T22:04:01.839Z,13.47
2022-10-31T22:08:02.248Z,12.30
2022-10-31T22:12:06.656Z,17.63
2022-10-31T22:16:10.026Z,19.97
2022-10-31T22:20:14.146Z,20.90
2022-10-31T22:24:15.270Z,24.50
2022-10-31T22:28:15.369Z,24.33
2022-10-31T22:32:15.530Z,24.93
2022-10-31T22:36:21.156Z,22.87
2022-10-31T22:40:21.291Z,19.53
2022-10-31T22:44:21.457Z,19.90
2022-10-31T22:48:21.569Z,19.97
2022-10-31T22:52:24.292Z,19.60
2022-10-31T22:56:26.863Z,23.93
2022-10-31T23:00:27.282Z,21.77
2022-10-31T23:04:27.403Z,23.90
2022-10-31T23:08:31.756Z,28.77
2022-10-31T23:12:45.419Z,26.00
2022-10-31T23:16:48.858Z,22.37
2022-10-31T23:20:54.353Z,27.23
2022-10-31T23:24:57.027Z,26.13
2022-10-31T23:28:54.619Z,25.60
2022-10-31T23:32:54.778Z,23.37
2022-10-31T23:36:55.263Z,22.37
2022-10-31T23:40:58.252Z,21.10
2022-10-31T23:44:58.827Z,22.37
2022-10-31T23:48:58.972Z,19.80
2022-10-31T23:52:59.049Z,15.80
2022-10-31T23:57:02.262Z,15.67
